sensor_id;sensor_type;location;lat;lon;timestamp;pressure;altitude;pressure_sealevel;temperature
82006;BMP280;71529;47.484;19.064;2023-07-31T00:02:14;100212.81;;;22.63
82006;BMP280;71529;47.484;19.064;2023-07-31T00:04:42;100207.91;;;22.76
82006;BMP280;71529;47.484;19.064;2023-07-31T00:07:11;100216.88;;;22.67
82006;BMP280;71529;47.484;19.064;2023-07-31T00:09:39;100211.16;;;22.65
82006;BMP280;71529;47.484;19.064;2023-07-31T00:12:07;100205.53;;;22.60
82006;BMP280;71529;47.484;19.064;2023-07-31T00:14:35;100209.75;;;22.70
82006;BMP280;71529;47.484;19.064;2023-07-31T00:17:04;100210.53;;;22.61
82006;BMP280;71529;47.484;19.064;2023-07-31T00:19:34;100213.25;;;22.61
82006;BMP280;71529;47.484;19.064;2023-07-31T00:22:02;100214.59;;;22.66
82006;BMP280;71529;47.484;19.064;2023-07-31T00:24:30;100215.34;;;22.66
82006;BMP280;71529;47.484;19.064;2023-07-31T00:26:58;100217.50;;;22.53
82006;BMP280;71529;47.484;19.064;2023-07-31T00:29:26;100219.03;;;22.45
82006;BMP280;71529;47.484;19.064;2023-07-31T00:31:53;100216.16;;;22.48
82006;BMP280;71529;47.484;19.064;2023-07-31T00:34:21;100217.69;;;22.49
82006;BMP280;71529;47.484;19.064;2023-07-31T00:36:51;100216.00;;;22.52
82006;BMP280;71529;47.484;19.064;2023-07-31T00:39:19;100213.59;;;22.54
82006;BMP280;71529;47.484;19.064;2023-07-31T00:41:47;100221.75;;;22.54
82006;BMP280;71529;47.484;19.064;2023-07-31T00:44:15;100220.69;;;22.51
82006;BMP280;71529;47.484;19.064;2023-07-31T00:46:44;100227.34;;;22.50
82006;BMP280;71529;47.484;19.064;2023-07-31T00:49:12;100230.97;;;22.47
82006;BMP280;71529;47.484;19.064;2023-07-31T00:51:40;100235.53;;;22.50
82006;BMP280;71529;47.484;19.064;2023-07-31T00:54:10;100223.41;;;22.42
82006;BMP280;71529;47.484;19.064;2023-07-31T00:56:40;100223.53;;;22.48
82006;BMP280;71529;47.484;19.064;2023-07-31T00:59:08;100222.78;;;22.47
82006;BMP280;71529;47.484;19.064;2023-07-31T01:01:37;100226.88;;;22.52
82006;BMP280;71529;47.484;19.064;2023-07-31T01:04:05;100233.72;;;22.38
82006;BMP280;71529;47.484;19.064;2023-07-31T01:06:37;100228.13;;;22.32
82006;BMP280;71529;47.484;19.064;2023-07-31T01:09:14;100224.63;;;22.32
82006;BMP280;71529;47.484;19.064;2023-07-31T01:11:52;100231.91;;;22.26
82006;BMP280;71529;47.484;19.064;2023-07-31T01:14:20;100231.13;;;22.25
82006;BMP280;71529;47.484;19.064;2023-07-31T01:16:48;100228.84;;;22.24
82006;BMP280;71529;47.484;19.064;2023-07-31T01:19:18;100232.06;;;22.22
82006;BMP280;71529;47.484;19.064;2023-07-31T01:22:03;100228.84;;;22.24
82006;BMP280;71529;47.484;19.064;2023-07-31T01:24:49;100231.72;;;22.20
82006;BMP280;71529;47.484;19.064;2023-07-31T01:27:25;100243.97;;;22.25
82006;BMP280;71529;47.484;19.064;2023-07-31T01:30:00;100250.31;;;22.31
82006;BMP280;71529;47.484;19.064;2023-07-31T01:32:32;100242.47;;;22.33
82006;BMP280;71529;47.484;19.064;2023-07-31T01:35:00;100246.38;;;22.23
82006;BMP280;71529;47.484;19.064;2023-07-31T01:37:29;100244.56;;;22.20
82006;BMP280;71529;47.484;19.064;2023-07-31T01:39:57;100239.56;;;22.27
82006;BMP280;71529;47.484;19.064;2023-07-31T01:42:26;100243.81;;;22.10
82006;BMP280;71529;47.484;19.064;2023-07-31T01:44:54;100240.34;;;22.09
82006;BMP280;71529;47.484;19.064;2023-07-31T01:47:22;100244.25;;;22.18
82006;BMP280;71529;47.484;19.064;2023-07-31T01:49:51;100236.69;;;22.03
82006;BMP280;71529;47.484;19.064;2023-07-31T01:52:19;100238.09;;;21.99
82006;BMP280;71529;47.484;19.064;2023-07-31T01:54:47;100233.34;;;21.99
82006;BMP280;71529;47.484;19.064;2023-07-31T01:57:15;100230.66;;;21.90
82006;BMP280;71529;47.484;19.064;2023-07-31T01:59:45;100219.59;;;21.84
82006;BMP280;71529;47.484;19.064;2023-07-31T02:02:13;100207.53;;;21.85
82006;BMP280;71529;47.484;19.064;2023-07-31T02:04:41;100212.22;;;21.94
82006;BMP280;71529;47.484;19.064;2023-07-31T02:07:09;100209.22;;;22.01
82006;BMP280;71529;47.484;19.064;2023-07-31T02:09:37;100211.44;;;22.03
82006;BMP280;71529;47.484;19.064;2023-07-31T02:12:05;100216.31;;;21.99
82006;BMP280;71529;47.484;19.064;2023-07-31T02:14:35;100200.59;;;21.93
82006;BMP280;71529;47.484;19.064;2023-07-31T02:17:05;100220.66;;;21.96
82006;BMP280;71529;47.484;19.064;2023-07-31T02:19:33;100227.91;;;21.99
82006;BMP280;71529;47.484;19.064;2023-07-31T02:22:01;100227.94;;;21.90
82006;BMP280;71529;47.484;19.064;2023-07-31T02:24:29;100222.50;;;21.90
82006;BMP280;71529;47.484;19.064;2023-07-31T02:26:58;100228.41;;;21.97
82006;BMP280;71529;47.484;19.064;2023-07-31T02:29:26;100220.66;;;21.96
82006;BMP280;71529;47.484;19.064;2023-07-31T02:31:54;100228.41;;;21.97
82006;BMP280;71529;47.484;19.064;2023-07-31T02:34:24;100239.84;;;21.92
82006;BMP280;71529;47.484;19.064;2023-07-31T02:36:52;100237.13;;;21.92
82006;BMP280;71529;47.484;19.064;2023-07-31T02:39:20;100230.94;;;21.92
82006;BMP280;71529;47.484;19.064;2023-07-31T02:41:48;100239.38;;;21.85
82006;BMP280;71529;47.484;19.064;2023-07-31T02:44:16;100237.44;;;21.85
82006;BMP280;71529;47.484;19.064;2023-07-31T02:46:44;100224.88;;;21.88
82006;BMP280;71529;47.484;19.064;2023-07-31T02:49:12;100232.47;;;22.02
82006;BMP280;71529;47.484;19.064;2023-07-31T02:51:41;100243.16;;;21.78
82006;BMP280;71529;47.484;19.064;2023-07-31T02:54:09;100255.78;;;21.63
82006;BMP280;71529;47.484;19.064;2023-07-31T02:56:37;100257.13;;;21.58
82006;BMP280;71529;47.484;19.064;2023-07-31T02:59:05;100258.63;;;21.59
82006;BMP280;71529;47.484;19.064;2023-07-31T03:01:33;100260.22;;;21.69
82006;BMP280;71529;47.484;19.064;2023-07-31T03:04:02;100255.63;;;21.57
82006;BMP280;71529;47.484;19.064;2023-07-31T03:06:30;100268.59;;;21.62
82006;BMP280;71529;47.484;19.064;2023-07-31T03:08:59;100268.59;;;21.62
82006;BMP280;71529;47.484;19.064;2023-07-31T03:11:27;100269.22;;;21.66
82006;BMP280;71529;47.484;19.064;2023-07-31T03:13:55;100264.50;;;21.48
82006;BMP280;71529;47.484;19.064;2023-07-31T03:16:23;100275.56;;;21.63
82006;BMP280;71529;47.484;19.064;2023-07-31T03:18:51;100268.94;;;21.64
82006;BMP280;71529;47.484;19.064;2023-07-31T03:21:19;100276.47;;;21.60
82006;BMP280;71529;47.484;19.064;2023-07-31T03:23:47;100281.88;;;21.60
82006;BMP280;71529;47.484;19.064;2023-07-31T03:26:17;100292.31;;;21.52
82006;BMP280;71529;47.484;19.064;2023-07-31T03:28:45;100280.03;;;21.48
82006;BMP280;71529;47.484;19.064;2023-07-31T03:31:13;100283.66;;;21.45
82006;BMP280;71529;47.484;19.064;2023-07-31T03:33:41;100279.41;;;21.43
82006;BMP280;71529;47.484;19.064;2023-07-31T03:36:09;100282.94;;;21.53
82006;BMP280;71529;47.484;19.064;2023-07-31T03:38:37;100276.47;;;21.60
82006;BMP280;71529;47.484;19.064;2023-07-31T03:41:05;100266.13;;;21.46
82006;BMP280;71529;47.484;19.064;2023-07-31T03:43:34;100276.91;;;21.49
82006;BMP280;71529;47.484;19.064;2023-07-31T03:46:02;100290.28;;;21.43
82006;BMP280;71529;47.484;19.064;2023-07-31T03:48:30;100289.09;;;21.45
82006;BMP280;71529;47.484;19.064;2023-07-31T03:50:58;100286.53;;;21.50
82006;BMP280;71529;47.484;19.064;2023-07-31T03:53:26;100290.47;;;21.49
82006;BMP280;71529;47.484;19.064;2023-07-31T03:55:54;100294.94;;;21.43
82006;BMP280;71529;47.484;19.064;2023-07-31T03:58:22;100293.19;;;21.49
82006;BMP280;71529;47.484;19.064;2023-07-31T04:00:52;100289.66;;;21.39
82006;BMP280;71529;47.484;19.064;2023-07-31T04:03:20;100285.16;;;21.46
82006;BMP280;71529;47.484;19.064;2023-07-31T04:05:48;100289.84;;;21.54
82006;BMP280;71529;47.484;19.064;2023-07-31T04:08:15;100287.03;;;21.58
82006;BMP280;71529;47.484;19.064;2023-07-31T04:10:43;100283.81;;;21.50
82006;BMP280;71529;47.484;19.064;2023-07-31T04:13:11;100279.91;;;21.51
82006;BMP280;71529;47.484;19.064;2023-07-31T04:15:39;100285.06;;;21.58
82006;BMP280;71529;47.484;19.064;2023-07-31T04:18:09;100282.81;;;21.57
82006;BMP280;71529;47.484;19.064;2023-07-31T04:20:37;100294.13;;;21.65
82006;BMP280;71529;47.484;19.064;2023-07-31T04:23:06;100280.84;;;21.67
82006;BMP280;71529;47.484;19.064;2023-07-31T04:25:34;100288.84;;;21.61
82006;BMP280;71529;47.484;19.064;2023-07-31T04:28:02;100282.03;;;21.56
82006;BMP280;71529;47.484;19.064;2023-07-31T04:30:30;100291.88;;;21.63
82006;BMP280;71529;47.484;19.064;2023-07-31T04:32:59;100289.19;;;21.72
82006;BMP280;71529;47.484;19.064;2023-07-31T04:35:28;100287.38;;;21.69
82006;BMP280;71529;47.484;19.064;2023-07-31T04:37:56;100284.78;;;21.66
82006;BMP280;71529;47.484;19.064;2023-07-31T04:40:24;100276.75;;;21.53
82006;BMP280;71529;47.484;19.064;2023-07-31T04:42:52;100277.03;;;21.55
82006;BMP280;71529;47.484;19.064;2023-07-31T04:45:20;100282.00;;;21.47
82006;BMP280;71529;47.484;19.064;2023-07-31T04:47:48;100292.13;;;21.47
82006;BMP280;71529;47.484;19.064;2023-07-31T04:50:16;100291.13;;;21.63
82006;BMP280;71529;47.484;19.064;2023-07-31T04:52:45;100296.66;;;21.59
82006;BMP280;71529;47.484;19.064;2023-07-31T04:55:13;100302.19;;;21.68
82006;BMP280;71529;47.484;19.064;2023-07-31T04:57:42;100296.41;;;21.66
82006;BMP280;71529;47.484;19.064;2023-07-31T05:00:10;100287.81;;;21.68
82006;BMP280;71529;47.484;19.064;2023-07-31T05:02:39;100284.91;;;21.62
82006;BMP280;71529;47.484;19.064;2023-07-31T05:05:08;100298.69;;;21.68
82006;BMP280;71529;47.484;19.064;2023-07-31T05:07:36;100298.69;;;21.68
82006;BMP280;71529;47.484;19.064;2023-07-31T05:10:06;100305.78;;;21.65
82006;BMP280;71529;47.484;19.064;2023-07-31T05:12:34;100310.94;;;21.72
82006;BMP280;71529;47.484;19.064;2023-07-31T05:15:02;100306.56;;;21.75
82006;BMP280;71529;47.484;19.064;2023-07-31T05:17:31;100310.66;;;21.79
82006;BMP280;71529;47.484;19.064;2023-07-31T05:19:59;100311.72;;;21.73
82006;BMP280;71529;47.484;19.064;2023-07-31T05:22:27;100302.91;;;21.69
82006;BMP280;71529;47.484;19.064;2023-07-31T05:24:55;100306.09;;;21.67
82006;BMP280;71529;47.484;19.064;2023-07-31T05:27:24;100309.69;;;21.64
82006;BMP280;71529;47.484;19.064;2023-07-31T05:29:52;100310.81;;;21.76
82006;BMP280;71529;47.484;19.064;2023-07-31T05:32:20;100312.94;;;21.81
82006;BMP280;71529;47.484;19.064;2023-07-31T05:34:50;100311.72;;;21.73
82006;BMP280;71529;47.484;19.064;2023-07-31T05:37:18;100309.13;;;21.78
82006;BMP280;71529;47.484;19.064;2023-07-31T05:39:46;100310.03;;;21.75
82006;BMP280;71529;47.484;19.064;2023-07-31T05:42:14;100305.50;;;21.72
82006;BMP280;71529;47.484;19.064;2023-07-31T05:44:44;100316.81;;;21.71
82006;BMP280;71529;47.484;19.064;2023-07-31T05:47:12;100325.59;;;21.75
82006;BMP280;71529;47.484;19.064;2023-07-31T05:49:40;100322.28;;;21.80
82006;BMP280;71529;47.484;19.064;2023-07-31T05:52:08;100323.06;;;21.81
82006;BMP280;71529;47.484;19.064;2023-07-31T05:54:36;100323.34;;;21.83
82006;BMP280;71529;47.484;19.064;2023-07-31T05:57:04;100327.16;;;21.94
82006;BMP280;71529;47.484;19.064;2023-07-31T05:59:32;100325.50;;;21.97
82006;BMP280;71529;47.484;19.064;2023-07-31T06:02:02;100322.47;;;21.95
82006;BMP280;71529;47.484;19.064;2023-07-31T06:04:30;100333.97;;;21.99
82006;BMP280;71529;47.484;19.064;2023-07-31T06:06:58;100330.25;;;22.06
82006;BMP280;71529;47.484;19.064;2023-07-31T06:09:26;100329.28;;;22.00
82006;BMP280;71529;47.484;19.064;2023-07-31T06:11:54;100340.63;;;21.98
82006;BMP280;71529;47.484;19.064;2023-07-31T06:14:22;100319.81;;;22.04
82006;BMP280;71529;47.484;19.064;2023-07-31T06:16:50;100334.00;;;22.08
82006;BMP280;71529;47.484;19.064;2023-07-31T06:19:19;100325.84;;;22.08
82006;BMP280;71529;47.484;19.064;2023-07-31T06:21:47;100328.28;;;22.15
82006;BMP280;71529;47.484;19.064;2023-07-31T06:24:15;100323.75;;;22.22
82006;BMP280;71529;47.484;19.064;2023-07-31T06:26:47;100324.97;;;22.21
82006;BMP280;71529;47.484;19.064;2023-07-31T06:29:14;100339.19;;;22.25
82006;BMP280;71529;47.484;19.064;2023-07-31T06:31:42;100319.38;;;22.24
82006;BMP280;71529;47.484;19.064;2023-07-31T06:34:10;100332.97;;;22.24
82006;BMP280;71529;47.484;19.064;2023-07-31T06:39:18;100321.81;;;22.31
82006;BMP280;71529;47.484;19.064;2023-07-31T06:41:46;100322.56;;;22.32
82006;BMP280;71529;47.484;19.064;2023-07-31T06:44:14;100326.06;;;22.32
82006;BMP280;71529;47.484;19.064;2023-07-31T06:46:42;100317.28;;;22.38
82006;BMP280;71529;47.484;19.064;2023-07-31T06:49:10;100319.84;;;22.41
82006;BMP280;71529;47.484;19.064;2023-07-31T06:51:39;100327.44;;;22.46
82006;BMP280;71529;47.484;19.064;2023-07-31T06:54:08;100322.59;;;22.50
82006;BMP280;71529;47.484;19.064;2023-07-31T06:56:37;100325.44;;;22.47
82006;BMP280;71529;47.484;19.064;2023-07-31T06:59:07;100343.91;;;22.52
82006;BMP280;71529;47.484;19.064;2023-07-31T07:01:35;100334.97;;;22.42
82006;BMP280;71529;47.484;19.064;2023-07-31T07:04:03;100339.34;;;22.40
82006;BMP280;71529;47.484;19.064;2023-07-31T07:06:31;100341.31;;;22.30
82006;BMP280;71529;47.484;19.064;2023-07-31T07:08:59;100337.50;;;22.27
82006;BMP280;71529;47.484;19.064;2023-07-31T07:11:27;100341.91;;;22.25
82006;BMP280;71529;47.484;19.064;2023-07-31T07:13:56;100338.00;;;22.26
82006;BMP280;71529;47.484;19.064;2023-07-31T07:16:24;100350.97;;;22.31
82006;BMP280;71529;47.484;19.064;2023-07-31T07:18:52;100345.41;;;22.34
82006;BMP280;71529;47.484;19.064;2023-07-31T07:21:31;100344.03;;;22.39
82006;BMP280;71529;47.484;19.064;2023-07-31T07:23:59;100352.06;;;22.33
82006;BMP280;71529;47.484;19.064;2023-07-31T07:26:27;100351.28;;;22.33
82006;BMP280;71529;47.484;19.064;2023-07-31T07:28:56;100350.84;;;22.34
82006;BMP280;71529;47.484;19.064;2023-07-31T07:31:27;100352.34;;;22.26
82006;BMP280;71529;47.484;19.064;2023-07-31T07:33:55;100353.53;;;22.25
82006;BMP280;71529;47.484;19.064;2023-07-31T07:36:23;100350.06;;;22.25
82006;BMP280;71529;47.484;19.064;2023-07-31T07:38:51;100344.94;;;22.27
82006;BMP280;71529;47.484;19.064;2023-07-31T07:41:20;100350.66;;;22.29
82006;BMP280;71529;47.484;19.064;2023-07-31T07:43:47;100336.34;;;22.38
82006;BMP280;71529;47.484;19.064;2023-07-31T07:46:17;100357.03;;;22.44
82006;BMP280;71529;47.484;19.064;2023-07-31T07:48:45;100350.69;;;22.47
82006;BMP280;71529;47.484;19.064;2023-07-31T07:51:13;100350.88;;;22.53
82006;BMP280;71529;47.484;19.064;2023-07-31T07:53:41;100343.91;;;22.61
82006;BMP280;71529;47.484;19.064;2023-07-31T07:56:09;100337.88;;;22.57
82006;BMP280;71529;47.484;19.064;2023-07-31T07:58:37;100346.16;;;22.54
82006;BMP280;71529;47.484;19.064;2023-07-31T08:01:05;100350.25;;;22.58
82006;BMP280;71529;47.484;19.064;2023-07-31T08:03:34;100341.19;;;22.61
82006;BMP280;71529;47.484;19.064;2023-07-31T08:06:03;100338.00;;;22.54
82006;BMP280;71529;47.484;19.064;2023-07-31T08:08:31;100349.06;;;22.50
82006;BMP280;71529;47.484;19.064;2023-07-31T08:10:59;100352.81;;;22.52
82006;BMP280;71529;47.484;19.064;2023-07-31T08:13:27;100348.28;;;22.59
82006;BMP280;71529;47.484;19.064;2023-07-31T08:15:55;100341.63;;;22.60
82006;BMP280;71529;47.484;19.064;2023-07-31T08:18:23;100352.22;;;22.67
82006;BMP280;71529;47.484;19.064;2023-07-31T08:20:52;100340.41;;;22.70
82006;BMP280;71529;47.484;19.064;2023-07-31T08:23:20;100338.47;;;22.80
82006;BMP280;71529;47.484;19.064;2023-07-31T08:25:48;100338.19;;;22.78
82006;BMP280;71529;47.484;19.064;2023-07-31T08:28:17;100348.59;;;22.88
82006;BMP280;71529;47.484;19.064;2023-07-31T08:30:45;100330.72;;;22.78
82006;BMP280;71529;47.484;19.064;2023-07-31T08:33:13;100349.31;;;22.98
82006;BMP280;71529;47.484;19.064;2023-07-31T08:35:41;100349.16;;;23.02
82006;BMP280;71529;47.484;19.064;2023-07-31T08:38:12;100340.56;;;23.03
82006;BMP280;71529;47.484;19.064;2023-07-31T08:40:39;100339.38;;;23.04
82006;BMP280;71529;47.484;19.064;2023-07-31T08:43:08;100322.69;;;23.02
82006;BMP280;71529;47.484;19.064;2023-07-31T08:45:36;100337.38;;;23.05
82006;BMP280;71529;47.484;19.064;2023-07-31T08:48:04;100340.13;;;23.05
82006;BMP280;71529;47.484;19.064;2023-07-31T08:50:33;100340.84;;;23.15
82006;BMP280;71529;47.484;19.064;2023-07-31T08:53:01;100337.97;;;23.18
82006;BMP280;71529;47.484;19.064;2023-07-31T08:55:32;100342.78;;;23.23
82006;BMP280;71529;47.484;19.064;2023-07-31T08:58:01;100334.59;;;23.23
82006;BMP280;71529;47.484;19.064;2023-07-31T09:00:32;100329.63;;;23.22
82006;BMP280;71529;47.484;19.064;2023-07-31T09:03:03;100341.56;;;23.34
82006;BMP280;71529;47.484;19.064;2023-07-31T09:05:31;100329.41;;;23.44
82006;BMP280;71529;47.484;19.064;2023-07-31T09:08:01;100313.34;;;23.46
82006;BMP280;71529;47.484;19.064;2023-07-31T09:10:31;100329.22;;;23.48
82006;BMP280;71529;47.484;19.064;2023-07-31T09:12:59;100322.09;;;23.50
82006;BMP280;71529;47.484;19.064;2023-07-31T09:15:27;100321.44;;;23.65
82006;BMP280;71529;47.484;19.064;2023-07-31T09:18:06;100319.94;;;23.64
82006;BMP280;71529;47.484;19.064;2023-07-31T09:20:35;100313.72;;;23.63
82006;BMP280;71529;47.484;19.064;2023-07-31T09:23:08;100331.81;;;23.75
82006;BMP280;71529;47.484;19.064;2023-07-31T09:25:39;100321.81;;;23.82
82006;BMP280;71529;47.484;19.064;2023-07-31T09:28:08;100294.00;;;23.68
82006;BMP280;71529;47.484;19.064;2023-07-31T09:30:45;100312.47;;;23.73
82006;BMP280;71529;47.484;19.064;2023-07-31T09:33:14;100310.00;;;23.75
82006;BMP280;71529;47.484;19.064;2023-07-31T09:35:42;100323.66;;;23.75
82006;BMP280;71529;47.484;19.064;2023-07-31T09:38:12;100314.38;;;23.82
82006;BMP280;71529;47.484;19.064;2023-07-31T09:40:42;100315.69;;;23.87
82006;BMP280;71529;47.484;19.064;2023-07-31T09:43:12;100317.63;;;23.95
82006;BMP280;71529;47.484;19.064;2023-07-31T09:45:41;100321.63;;;23.85
82006;BMP280;71529;47.484;19.064;2023-07-31T09:48:11;100298.59;;;23.86
82006;BMP280;71529;47.484;19.064;2023-07-31T09:50:42;100305.56;;;23.87
82006;BMP280;71529;47.484;19.064;2023-07-31T09:53:10;100315.78;;;24.02
82006;BMP280;71529;47.484;19.064;2023-07-31T09:55:41;100311.84;;;24.03
82006;BMP280;71529;47.484;19.064;2023-07-31T09:58:11;100316.53;;;24.02
82006;BMP280;71529;47.484;19.064;2023-07-31T10:00:40;100307.44;;;24.05
82006;BMP280;71529;47.484;19.064;2023-07-31T10:03:09;100318.16;;;24.09
82006;BMP280;71529;47.484;19.064;2023-07-31T10:05:40;100323.53;;;24.18
82006;BMP280;71529;47.484;19.064;2023-07-31T10:08:10;100320.81;;;24.18
82006;BMP280;71529;47.484;19.064;2023-07-31T10:10:43;100313.94;;;24.23
82006;BMP280;71529;47.484;19.064;2023-07-31T10:13:11;100320.88;;;24.33
82006;BMP280;71529;47.484;19.064;2023-07-31T10:15:40;100332.25;;;24.31
82006;BMP280;71529;47.484;19.064;2023-07-31T10:18:11;100311.41;;;24.43
82006;BMP280;71529;47.484;19.064;2023-07-31T10:20:40;100314.94;;;24.34
82006;BMP280;71529;47.484;19.064;2023-07-31T10:23:08;100314.66;;;24.32
82006;BMP280;71529;47.484;19.064;2023-07-31T10:25:38;100306.88;;;24.55
82006;BMP280;71529;47.484;19.064;2023-07-31T10:28:08;100304.63;;;24.68
82006;BMP280;71529;47.484;19.064;2023-07-31T10:30:37;100316.88;;;24.58
82006;BMP280;71529;47.484;19.064;2023-07-31T10:33:06;100318.19;;;24.63
82006;BMP280;71529;47.484;19.064;2023-07-31T10:35:34;100311.78;;;24.66
82006;BMP280;71529;47.484;19.064;2023-07-31T10:38:10;100304.06;;;24.64
82006;BMP280;71529;47.484;19.064;2023-07-31T10:40:38;100303.91;;;24.83
82006;BMP280;71529;47.484;19.064;2023-07-31T10:43:08;100291.06;;;24.74
82006;BMP280;71529;47.484;19.064;2023-07-31T10:45:39;100295.69;;;24.83
82006;BMP280;71529;47.484;19.064;2023-07-31T10:48:13;100295.31;;;24.90
82006;BMP280;71529;47.484;19.064;2023-07-31T10:50:47;100293.03;;;24.88
82006;BMP280;71529;47.484;19.064;2023-07-31T10:53:22;100296.16;;;24.96
82006;BMP280;71529;47.484;19.064;2023-07-31T10:55:51;100278.16;;;25.04
82006;BMP280;71529;47.484;19.064;2023-07-31T10:58:20;100284.25;;;24.99
82006;BMP280;71529;47.484;19.064;2023-07-31T11:00:48;100282.75;;;24.98
82006;BMP280;71529;47.484;19.064;2023-07-31T11:03:18;100283.31;;;25.02
82006;BMP280;71529;47.484;19.064;2023-07-31T11:05:50;100299.31;;;25.09
82006;BMP280;71529;47.484;19.064;2023-07-31T11:08:22;100292.63;;;25.11
82006;BMP280;71529;47.484;19.064;2023-07-31T11:11:04;100293.66;;;25.28
82006;BMP280;71529;47.484;19.064;2023-07-31T11:13:40;100284.69;;;25.27
82006;BMP280;71529;47.484;19.064;2023-07-31T11:16:08;100277.41;;;25.39
82006;BMP280;71529;47.484;19.064;2023-07-31T11:18:39;100271.66;;;25.37
82006;BMP280;71529;47.484;19.064;2023-07-31T11:21:08;100267.84;;;25.29
82006;BMP280;71529;47.484;19.064;2023-07-31T11:23:39;100267.75;;;25.23
82006;BMP280;71529;47.484;19.064;2023-07-31T11:26:07;100260.16;;;25.33
82006;BMP280;71529;47.484;19.064;2023-07-31T11:28:37;100256.28;;;25.40
82006;BMP280;71529;47.484;19.064;2023-07-31T11:31:05;100256.25;;;25.55
82006;BMP280;71529;47.484;19.064;2023-07-31T11:33:37;100239.06;;;25.54
82006;BMP280;71529;47.484;19.064;2023-07-31T11:36:05;100244.31;;;25.58
82006;BMP280;71529;47.484;19.064;2023-07-31T11:38:33;100253.16;;;25.68
82006;BMP280;71529;47.484;19.064;2023-07-31T11:41:03;100251.66;;;25.67
82006;BMP280;71529;47.484;19.064;2023-07-31T11:43:31;100246.44;;;25.69
82006;BMP280;71529;47.484;19.064;2023-07-31T11:46:01;100257.47;;;25.74
82006;BMP280;71529;47.484;19.064;2023-07-31T11:48:31;100250.97;;;25.72
82006;BMP280;71529;47.484;19.064;2023-07-31T11:51:02;100258.41;;;25.71
82006;BMP280;71529;47.484;19.064;2023-07-31T11:53:33;100253.50;;;25.75
82006;BMP280;71529;47.484;19.064;2023-07-31T11:56:03;100252.69;;;25.90
82006;BMP280;71529;47.484;19.064;2023-07-31T11:58:34;100236.66;;;25.82
82006;BMP280;71529;47.484;19.064;2023-07-31T12:01:04;100245.22;;;25.90
82006;BMP280;71529;47.484;19.064;2023-07-31T12:03:33;100237.38;;;26.04
82006;BMP280;71529;47.484;19.064;2023-07-31T12:06:01;100232.88;;;26.00
82006;BMP280;71529;47.484;19.064;2023-07-31T12:08:30;100233.84;;;25.97
82006;BMP280;71529;47.484;19.064;2023-07-31T12:11:03;100239.66;;;26.05
82006;BMP280;71529;47.484;19.064;2023-07-31T12:13:32;100237.59;;;26.00
82006;BMP280;71529;47.484;19.064;2023-07-31T12:16:04;100235.50;;;26.15
82006;BMP280;71529;47.484;19.064;2023-07-31T12:18:35;100221.75;;;26.10
82006;BMP280;71529;47.484;19.064;2023-07-31T12:21:05;100214.06;;;26.08
82006;BMP280;71529;47.484;19.064;2023-07-31T12:23:35;100218.06;;;26.13
82006;BMP280;71529;47.484;19.064;2023-07-31T12:26:05;100232.03;;;26.15
82006;BMP280;71529;47.484;19.064;2023-07-31T12:28:38;100214.66;;;26.18
82006;BMP280;71529;47.484;19.064;2023-07-31T12:31:10;100230.56;;;26.19
82006;BMP280;71529;47.484;19.064;2023-07-31T12:33:40;100219.41;;;26.23
82006;BMP280;71529;47.484;19.064;2023-07-31T12:36:09;100205.22;;;26.19
82006;BMP280;71529;47.484;19.064;2023-07-31T12:38:38;100217.22;;;26.27
82006;BMP280;71529;47.484;19.064;2023-07-31T12:41:07;100209.22;;;26.24
82006;BMP280;71529;47.484;19.064;2023-07-31T12:43:36;100210.06;;;26.35
82006;BMP280;71529;47.484;19.064;2023-07-31T12:46:04;100209.03;;;26.33
82006;BMP280;71529;47.484;19.064;2023-07-31T12:48:36;100205.06;;;26.34
82006;BMP280;71529;47.484;19.064;2023-07-31T12:51:05;100199.84;;;26.36
82006;BMP280;71529;47.484;19.064;2023-07-31T12:53:33;100185.91;;;26.34
82006;BMP280;71529;47.484;19.064;2023-07-31T12:56:01;100193.91;;;26.37
82006;BMP280;71529;47.484;19.064;2023-07-31T12:58:29;100197.97;;;26.48
82006;BMP280;71529;47.484;19.064;2023-07-31T13:00:57;100193.22;;;26.43
82006;BMP280;71529;47.484;19.064;2023-07-31T13:03:25;100189.66;;;26.36
82006;BMP280;71529;47.484;19.064;2023-07-31T13:05:55;100193.22;;;26.43
82006;BMP280;71529;47.484;19.064;2023-07-31T13:08:23;100191.47;;;26.13
82006;BMP280;71529;47.484;19.064;2023-07-31T13:10:51;100184.09;;;26.25
82006;BMP280;71529;47.484;19.064;2023-07-31T13:13:20;100196.97;;;26.45
82006;BMP280;71529;47.484;19.064;2023-07-31T13:15:48;100179.47;;;26.37
82006;BMP280;71529;47.484;19.064;2023-07-31T13:18:17;100177.94;;;26.36
82006;BMP280;71529;47.484;19.064;2023-07-31T13:20:45;100176.88;;;26.28
82006;BMP280;71529;47.484;19.064;2023-07-31T13:23:14;100176.41;;;26.29
82006;BMP280;71529;47.484;19.064;2023-07-31T13:25:42;100184.31;;;26.22
82006;BMP280;71529;47.484;19.064;2023-07-31T13:28:10;100176.00;;;26.42
82006;BMP280;71529;47.484;19.064;2023-07-31T13:30:38;100171.63;;;26.24
82006;BMP280;71529;47.484;19.064;2023-07-31T13:33:06;100166.88;;;26.19
82006;BMP280;71529;47.484;19.064;2023-07-31T13:35:51;100170.66;;;26.27
82006;BMP280;71529;47.484;19.064;2023-07-31T13:38:20;100163.91;;;26.23
82006;BMP280;71529;47.484;19.064;2023-07-31T13:40:48;100168.16;;;26.24
82006;BMP280;71529;47.484;19.064;2023-07-31T13:43:16;100163.09;;;26.16
82006;BMP280;71529;47.484;19.064;2023-07-31T13:45:44;100160.66;;;26.18
82006;BMP280;71529;47.484;19.064;2023-07-31T13:48:12;100154.97;;;25.96
82006;BMP280;71529;47.484;19.064;2023-07-31T13:50:40;100168.84;;;26.18
82006;BMP280;71529;47.484;19.064;2023-07-31T13:53:08;100161.97;;;26.29
82006;BMP280;71529;47.484;19.064;2023-07-31T13:55:37;100152.16;;;26.16
82006;BMP280;71529;47.484;19.064;2023-07-31T13:58:05;100163.88;;;26.17